Time;durP1;ratioP1;P1;durP2;ratioP2;P2;SDS_P1;SDS_P2;PMS_P1;PMS_P2;Temp;Humidity;BMP_temperature;BMP_pressure;BME280_temperature;BME280_humidity;BME280_pressure;Samples;Min_cycle;Max_cycle;Signal;HPM_P1;HPM_P2
2022/04/23 00:02:23;;;;;;;46.10;38.35;;;;;;;8.18;100.00;98823.44;6125143;23;20034;-83
2022/04/23 00:04:49;;;;;;;47.95;39.58;;;;;;;8.21;100.00;98823.31;6124407;23;20053;-82
2022/04/23 00:07:15;;;;;;;45.85;38.85;;;;;;;8.24;100.00;98827.19;6124343;23;20010;-83
2022/04/23 00:09:40;;;;;;;49.92;40.40;;;;;;;8.30;100.00;98830.91;6124332;23;20337;-83
2022/04/23 00:12:06;;;;;;;49.10;40.33;;;;;;;8.28;100.00;98831.34;6124923;23;20041;-83
2022/04/23 00:14:33;;;;;;;47.40;39.80;;;;;;;8.36;100.00;98837.41;6124040;23;20037;-83
2022/04/23 00:17:00;;;;;;;46.50;39.22;;;;;;;8.34;100.00;98832.31;6124104;23;20025;-83
2022/04/23 00:19:26;;;;;;;46.40;37.72;;;;;;;8.38;100.00;98832.19;6125095;23;20014;-83
2022/04/23 00:21:51;;;;;;;47.50;39.15;;;;;;;8.36;100.00;98826.38;6124706;23;20057;-84
2022/04/23 00:24:17;;;;;;;48.15;38.08;;;;;;;8.34;100.00;98831.56;6125243;23;20037;-82
2022/04/23 00:26:44;;;;;;;47.50;38.53;;;;;;;8.32;100.00;98837.56;6124937;23;20373;-83
2022/04/23 00:29:09;;;;;;;45.83;38.20;;;;;;;8.29;100.00;98829.41;6123676;23;20041;-82
2022/04/23 00:31:36;;;;;;;46.13;39.00;;;;;;;8.27;100.00;98840.84;6124893;23;20014;-83
2022/04/23 00:34:03;;;;;;;45.28;38.10;;;;;;;8.23;100.00;98842.97;6124843;23;20089;-83
2022/04/23 00:36:28;;;;;;;46.10;38.25;;;;;;;8.20;100.00;98832.06;6124971;23;20014;-82
2022/04/23 00:38:54;;;;;;;46.00;38.78;;;;;;;8.23;100.00;98842.97;6123080;23;20009;-83
2022/04/23 00:44:05;;;;;;;49.67;37.28;;;;;;;8.19;100.00;98836.81;6125072;23;20025;-83
2022/04/23 00:46:31;;;;;;;45.97;37.92;;;;;;;8.23;100.00;98839.44;6124929;23;20085;-83
2022/04/23 00:48:58;;;;;;;46.53;37.40;;;;;;;8.22;100.00;98844.19;6124439;23;20044;-82
2022/04/23 00:51:25;;;;;;;43.85;37.22;;;;;;;8.17;100.00;98839.22;6124721;23;20014;-83
2022/04/23 00:53:51;;;;;;;42.65;37.63;;;;;;;8.15;100.00;98838.94;6123141;23;20036;-82
2022/04/23 00:56:17;;;;;;;43.50;36.55;;;;;;;8.13;100.00;98846.88;6123460;23;20014;-83
2022/04/23 00:58:43;;;;;;;43.42;36.75;;;;;;;8.17;100.00;98835.72;6124522;23;20447;-83
2022/04/23 01:03:44;;;;;;;44.03;36.88;;;;;;;8.19;100.00;98844.31;6189089;23;20095;-85
2022/04/23 01:06:33;;;;;;;48.17;37.55;;;;;;;8.21;100.00;98839.13;6213982;23;20013;-85
2022/04/23 01:09:01;;;;;;;46.40;36.88;;;;;;;8.21;100.00;98850.94;6213798;23;20468;-85
2022/04/23 01:11:27;;;;;;;46.33;37.63;;;;;;;8.17;100.00;98839.22;6214129;23;20385;-85
2022/04/23 01:13:53;;;;;;;43.17;37.17;;;;;;;8.17;100.00;98857.81;6213847;23;20013;-86
2022/04/23 01:16:19;;;;;;;43.55;37.17;;;;;;;8.18;100.00;98856.59;6213882;23;20008;-85
2022/04/23 01:18:44;;;;;;;44.45;36.78;;;;;;;8.18;100.00;98851.84;6187457;23;20350;-86
2022/04/23 01:21:10;;;;;;;42.70;35.97;;;;;;;8.14;100.00;98831.84;6214102;23;20009;-85
2022/04/23 01:23:40;;;;;;;43.42;36.25;;;;;;;8.15;100.00;98838.94;6213612;23;20586;-85
2022/04/23 01:26:07;;;;;;;44.30;37.08;;;;;;;8.19;100.00;98853.38;6188248;23;20016;-85
2022/04/23 01:28:35;;;;;;;43.83;36.03;;;;;;;8.22;100.00;98860.75;6187313;23;20015;-84
2022/04/23 01:31:01;;;;;;;43.35;35.65;;;;;;;8.24;100.00;98858.34;6187040;23;20013;-85
2022/04/23 01:33:27;;;;;;;41.22;34.70;;;;;;;8.23;100.00;98862.31;6213668;23;20055;-85
2022/04/23 01:35:53;;;;;;;43.28;35.97;;;;;;;8.22;100.00;98869.06;6213592;23;20027;-85
2022/04/23 01:38:18;;;;;;;40.80;34.85;;;;;;;8.20;100.00;98865.97;6213734;23;20427;-86
2022/04/23 01:40:44;;;;;;;40.58;34.80;;;;;;;8.21;100.00;98861.22;6187044;23;20017;-86
2022/04/23 01:43:10;;;;;;;39.03;33.28;;;;;;;8.19;100.00;98861.66;6213453;23;20365;-86
2022/04/23 01:45:37;;;;;;;43.33;35.78;;;;;;;8.14;100.00;98856.72;6213825;23;20019;-86
2022/04/23 01:48:03;;;;;;;40.70;34.50;;;;;;;8.15;100.00;98863.78;6213335;23;20406;-86
2022/04/23 01:50:28;;;;;;;43.47;35.15;;;;;;;8.07;100.00;98845.94;6214003;23;20012;-86
2022/04/23 01:52:53;;;;;;;41.70;34.47;;;;;;;8.11;100.00;98865.91;6213180;23;20008;-86
2022/04/23 01:55:19;;;;;;;44.85;36.45;;;;;;;8.16;100.00;98859.81;6187129;23;20044;-86
2022/04/23 01:57:45;;;;;;;41.53;35.78;;;;;;;8.15;100.00;98863.78;6213438;23;20011;-85
2022/04/23 02:00:13;;;;;;;44.25;35.58;;;;;;;8.18;100.00;98862.88;6162374;23;20389;-86
2022/04/23 02:02:39;;;;;;;39.22;33.60;;;;;;;8.14;100.00;98856.72;6213064;23;20085;-86
2022/04/23 02:05:05;;;;;;;40.95;33.33;;;;;;;8.16;100.00;98873.63;6211869;23;20489;-86
2022/04/23 02:07:31;;;;;;;40.90;33.67;;;;;;;8.17;100.00;98866.84;6213640;23;20430;-86
2022/04/23 02:09:56;;;;;;;40.35;33.90;;;;;;;8.16;100.00;98870.09;6213059;23;20007;-86
2022/04/23 02:12:21;;;;;;;39.80;33.30;;;;;;;8.14;100.00;98878.03;6213417;23;20052;-86
2022/04/23 02:14:48;;;;;;;39.85;32.58;;;;;;;8.18;100.00;98879.47;6213558;23;20011;-86
2022/04/23 02:17:14;;;;;;;39.78;33.88;;;;;;;8.20;100.00;98877.03;6213251;23;20013;-85
2022/04/23 02:19:39;;;;;;;40.08;33.55;;;;;;;8.18;100.00;98868.41;6211940;23;20096;-86
2022/04/23 02:22:05;;;;;;;40.75;34.65;;;;;;;8.22;100.00;98869.06;6213043;23;20382;-85
2022/04/23 02:24:31;;;;;;;42.63;35.50;;;;;;;8.28;100.00;98872.03;6213613;23;20043;-85
2022/04/23 02:26:57;;;;;;;42.00;34.53;;;;;;;8.29;100.00;98877.09;6211862;23;20005;-85
2022/04/23 02:29:22;;;;;;;41.65;35.47;;;;;;;8.25;100.00;98876.44;6211940;23;20013;-85
2022/04/23 02:31:48;;;;;;;44.47;36.42;;;;;;;8.25;100.00;98865.38;6186631;23;20406;-85
2022/04/23 02:34:13;;;;;;;48.38;38.45;;;;;;;8.26;100.00;98875.22;6211197;23;20008;-85
2022/04/23 02:36:39;;;;;;;44.00;36.70;;;;;;;8.21;100.00;98873.03;6213677;23;20043;-85
2022/04/23 02:39:05;;;;;;;46.67;37.58;;;;;;;8.25;100.00;98862.63;6211279;23;20057;-85
2022/04/23 02:41:30;;;;;;;46.33;37.65;;;;;;;8.28;100.00;98881.09;6213449;23;20019;-85
2022/04/23 02:43:57;;;;;;;48.22;39.80;;;;;;;8.24;100.00;98877.69;6212744;23;20016;-85
2022/04/23 02:46:25;;;;;;;47.88;39.03;;;;;;;8.28;100.00;98878.31;6213474;23;20447;-86
2022/04/23 02:48:51;;;;;;;46.83;37.95;;;;;;;8.28;100.00;98877.53;6212776;23;20434;-85
2022/04/23 02:51:16;;;;;;;48.05;38.58;;;;;;;8.26;100.00;98880.75;6211864;23;20011;-85
2022/04/23 02:53:45;;;;;;;46.92;38.13;;;;;;;8.24;100.00;98877.69;6211835;23;20013;-86
2022/04/23 02:56:16;;;;;;;47.72;38.80;;;;;;;8.21;100.00;98875.78;6186820;23;20000;-85
2022/04/23 02:58:43;;;;;;;49.83;39.17;;;;;;;8.28;100.00;98881.09;6187905;23;20019;-86
2022/04/23 03:01:10;;;;;;;53.17;40.45;;;;;;;8.32;100.00;98876.22;6213105;23;20001;-85
2022/04/23 03:03:40;;;;;;;51.05;40.25;;;;;;;8.34;100.00;98876.53;6211577;23;20025;-85
2022/04/23 03:06:07;;;;;;;50.22;39.45;;;;;;;8.32;100.00;98879.00;6212794;23;20009;-85
2022/04/23 03:08:35;;;;;;;46.05;38.03;;;;;;;8.31;100.00;98882.97;6213191;23;20032;-85
2022/04/23 03:11:01;;;;;;;48.88;38.72;;;;;;;8.27;100.00;98878.75;6211383;23;20445;-85
2022/04/23 03:13:26;;;;;;;47.70;38.63;;;;;;;8.27;100.00;98885.06;6213223;23;20009;-85
2022/04/23 03:15:52;;;;;;;48.10;38.33;;;;;;;8.28;100.00;98892.13;6213306;23;20016;-85
2022/04/23 03:18:18;;;;;;;46.72;38.22;;;;;;;8.28;100.00;98894.91;6213464;23;20062;-86
2022/04/23 03:20:44;;;;;;;47.00;38.58;;;;;;;8.27;100.00;98893.34;6211427;23;20070;-86
2022/04/23 03:23:11;;;;;;;47.17;39.03;;;;;;;8.33;100.00;98901.88;6212921;23;20381;-85
2022/04/23 03:25:37;;;;;;;49.35;39.35;;;;;;;8.28;100.00;98900.41;6213269;23;20040;-86
2022/04/23 03:28:03;;;;;;;49.30;39.72;;;;;;;8.28;100.00;98903.19;6212828;23;20012;-86
2022/04/23 03:30:29;;;;;;;48.53;39.33;;;;;;;8.30;100.00;98900.75;6211599;23;20399;-86
2022/04/23 03:32:54;;;;;;;51.58;39.45;;;;;;;8.31;100.00;98894.03;6211106;23;20021;-86
2022/04/23 03:35:21;;;;;;;48.72;38.85;;;;;;;8.32;100.00;98900.31;6211521;23;20016;-86
2022/04/23 03:37:47;;;;;;;48.67;39.45;;;;;;;8.38;100.00;98904.81;6212974;23;20033;-86
2022/04/23 03:40:13;;;;;;;48.50;38.47;;;;;;;8.34;100.00;98909.69;6213808;23;20004;-86
2022/04/23 03:42:40;;;;;;;48.78;38.97;;;;;;;8.30;100.00;98913.78;6213436;23;20437;-86
2022/04/23 03:45:07;;;;;;;47.42;38.63;;;;;;;8.33;100.00;98921.97;6214634;23;20011;-86
2022/04/23 03:47:32;;;;;;;48.20;38.80;;;;;;;8.32;100.00;98923.19;6213517;23;20051;-86
2022/04/23 03:50:07;;;;;;;46.90;38.40;;;;;;;8.27;100.00;98920.97;6214499;23;20016;-86
2022/04/23 03:52:33;;;;;;;51.90;39.80;;;;;;;8.22;100.00;98918.78;6214740;23;20533;-86
2022/04/23 03:54:59;;;;;;;51.72;40.38;;;;;;;8.26;100.00;98922.19;6212965;23;20008;-85
2022/04/23 03:57:25;;;;;;;50.15;39.38;;;;;;;8.22;100.00;98924.31;6213163;23;20009;-85
2022/04/23 03:59:50;;;;;;;48.05;39.00;;;;;;;8.22;100.00;98918.78;6214653;23;20017;-86
2022/04/23 04:02:16;;;;;;;52.67;40.25;;;;;;;8.19;100.00;98924.44;6214144;23;20088;-85
2022/04/23 04:04:42;;;;;;;49.03;39.08;;;;;;;8.27;100.00;98931.25;6214571;23;20012;-85
2022/04/23 04:07:08;;;;;;;50.92;39.75;;;;;;;8.28;100.00;98935.56;6214289;23;20015;-85
2022/04/23 04:09:34;;;;;;;50.05;39.92;;;;;;;8.30;100.00;98944.19;6212932;23;20339;-85
2022/04/23 04:12:03;;;;;;;49.47;40.08;;;;;;;8.27;100.00;98926.50;6212873;23;20004;-86
2022/04/23 04:14:32;;;;;;;54.35;41.08;;;;;;;8.23;100.00;98928.63;6213017;23;20008;-86
2022/04/23 04:17:03;;;;;;;47.90;39.20;;;;;;;8.26;100.00;98933.22;6213016;23;20087;-86
2022/04/23 04:19:30;;;;;;;51.67;40.72;;;;;;;8.29;100.00;98928.84;6214417;23;20059;-86
2022/04/23 04:21:57;;;;;;;49.28;40.40;;;;;;;8.28;100.00;98922.53;6212857;23;20039;-86
2022/04/23 04:24:23;;;;;;;48.20;38.55;;;;;;;8.29;100.00;98923.31;6212778;23;20063;-87
2022/04/23 04:26:48;;;;;;;49.78;39.45;;;;;;;8.25;100.00;98917.88;6213073;23;20025;-86
2022/04/23 04:29:14;;;;;;;51.75;41.28;;;;;;;8.23;100.00;98920.31;6214129;23;20039;-86
2022/04/23 04:31:49;;;;;;;52.25;40.35;;;;;;;8.12;100.00;98906.13;6214431;23;20009;-86
2022/04/23 04:34:16;;;;;;;48.05;38.97;;;;;;;8.23;100.00;98917.56;6212522;23;20019;-86
2022/04/23 04:36:41;;;;;;;47.88;38.22;;;;;;;8.25;100.00;98928.94;6214242;23;20010;-86
2022/04/23 04:39:07;;;;;;;47.03;38.28;;;;;;;8.33;100.00;98929.50;6212643;23;20009;-86
2022/04/23 04:41:35;;;;;;;49.17;40.42;;;;;;;8.33;100.00;98923.97;6214377;23;20013;-86
2022/04/23 04:44:04;;;;;;;50.38;38.85;;;;;;;8.35;100.00;98927.03;6214118;23;20013;-86
2022/04/23 04:46:29;;;;;;;50.83;40.60;;;;;;;8.34;100.00;98926.28;6214485;23;20016;-86
2022/04/23 04:48:55;;;;;;;51.92;39.22;;;;;;;8.37;100.00;98933.66;6214400;23;20008;-86
2022/04/23 04:51:21;;;;;;;48.67;38.92;;;;;;;8.35;100.00;98938.88;6211677;23;20051;-86
2022/04/23 04:53:46;;;;;;;50.00;39.08;;;;;;;8.35;100.00;98946.38;6214027;23;20039;-86
2022/04/23 04:56:11;;;;;;;49.80;38.70;;;;;;;8.38;100.00;98951.78;6212553;23;20016;-86
2022/04/23 04:58:37;;;;;;;49.42;39.17;;;;;;;8.39;100.00;98955.31;6214121;23;20501;-86
2022/04/23 05:01:03;;;;;;;53.63;39.65;;;;;;;8.38;100.00;98951.78;6213666;23;20059;-86
2022/04/23 05:03:29;;;;;;;49.08;38.92;;;;;;;8.38;100.00;98948.25;6187293;23;20016;-86
2022/04/23 05:05:54;;;;;;;48.17;38.88;;;;;;;8.45;100.00;98959.06;6214335;23;20469;-86
2022/04/23 05:08:21;;;;;;;48.47;37.97;;;;;;;8.42;100.00;98971.00;6212120;23;20070;-85
2022/04/23 05:10:47;;;;;;;47.97;38.42;;;;;;;8.41;100.00;98981.28;6213810;23;20438;-86
2022/04/23 05:13:12;;;;;;;48.08;39.22;;;;;;;8.40;100.00;98981.75;6213767;23;20051;-86
2022/04/23 05:15:39;;;;;;;50.47;40.20;;;;;;;8.39;100.00;98991.25;6214086;23;20528;-86
2022/04/23 05:18:04;;;;;;;48.58;38.92;;;;;;;8.45;100.00;98985.94;6212229;23;20013;-86
2022/04/23 05:20:30;;;;;;;49.50;38.45;;;;;;;8.49;100.00;98986.56;6213777;23;20481;-86
2022/04/23 05:22:55;;;;;;;45.65;35.95;;;;;;;8.56;100.00;98976.03;6213737;23;20015;-86
2022/04/23 05:25:21;;;;;;;42.75;35.25;;;;;;;8.60;100.00;98984.22;6213812;23;20012;-86
2022/04/23 05:27:46;;;;;;;45.35;35.78;;;;;;;8.65;100.00;98983.63;6213981;23;20379;-85
2022/04/23 05:30:12;;;;;;;43.15;35.35;;;;;;;8.68;100.00;98988.25;6213558;23;20449;-85
2022/04/23 05:32:38;;;;;;;41.35;34.22;;;;;;;8.66;100.00;98985.16;6187179;23;20032;-85
2022/04/23 05:35:04;;;;;;;40.20;34.17;;;;;;;8.68;100.00;98988.25;6213262;23;20016;-85
2022/04/23 05:37:30;;;;;;;43.42;35.28;;;;;;;8.73;100.00;98984.94;6213761;23;20015;-85
2022/04/23 05:39:55;;;;;;;41.15;34.25;;;;;;;8.77;100.00;98996.63;6213557;23;20001;-85
2022/04/23 05:42:21;;;;;;;41.53;33.72;;;;;;;8.78;100.00;99009.22;6213431;23;20312;-85
2022/04/23 05:44:46;;;;;;;40.83;33.55;;;;;;;8.77;100.00;99004.94;6211629;23;20047;-86
2022/04/23 05:47:12;;;;;;;46.05;35.35;;;;;;;8.72;100.00;98999.97;6213351;23;20012;-85
2022/04/23 05:49:38;;;;;;;42.55;33.17;;;;;;;8.71;100.00;99017.78;6213398;23;20316;-85
2022/04/23 05:52:03;;;;;;;41.95;34.05;;;;;;;8.76;100.00;99019.97;6213274;23;20012;-86
2022/04/23 05:54:29;;;;;;;40.13;33.28;;;;;;;8.74;100.00;99023.16;6213111;23;20012;-86
2022/04/23 05:56:54;;;;;;;42.58;35.13;;;;;;;8.75;100.00;99018.41;6213469;23;20127;-86
2022/04/23 05:59:20;;;;;;;42.63;33.58;;;;;;;8.80;100.00;99017.84;6212990;23;20015;-85
2022/04/23 06:01:45;;;;;;;39.03;32.38;;;;;;;8.76;100.00;99026.28;6211675;23;20007;-86
2022/04/23 06:04:11;;;;;;;41.22;33.85;;;;;;;8.82;100.00;99029.22;6212998;23;20020;-85
2022/04/23 06:06:37;;;;;;;40.55;32.95;;;;;;;8.80;100.00;99034.44;6213118;23;20346;-87
2022/04/23 06:09:02;;;;;;;38.28;31.95;;;;;;;8.81;100.00;99036.75;6212688;23;20089;-86
2022/04/23 06:11:28;;;;;;;40.28;33.97;;;;;;;8.80;100.00;99037.19;6211874;23;20016;-85
2022/04/23 06:13:53;;;;;;;42.28;34.28;;;;;;;8.86;100.00;99038.16;6212034;23;20139;-85
2022/04/23 06:16:18;;;;;;;39.40;32.53;;;;;;;8.91;100.00;99034.81;6210115;23;20039;-85
2022/04/23 06:18:44;;;;;;;36.95;31.55;;;;;;;8.93;100.00;99037.91;6211765;23;20074;-86
2022/04/23 06:21:10;;;;;;;37.33;30.92;;;;;;;8.93;100.00;99034.38;6211519;23;20020;-85
2022/04/23 06:23:35;;;;;;;37.78;32.65;;;;;;;8.93;100.00;99032.38;6211586;23;20005;-85
2022/04/23 06:26:01;;;;;;;37.80;31.70;;;;;;;9.00;100.00;99036.88;6211931;23;20581;-86
2022/04/23 06:28:26;;;;;;;38.40;31.27;;;;;;;9.01;100.00;99033.69;6210544;23;20004;-87
2022/04/23 06:30:52;;;;;;;39.10;31.95;;;;;;;9.07;100.00;99048.47;6210501;23;20016;-88
2022/04/23 06:33:17;;;;;;;37.03;31.83;;;;;;;9.13;100.00;99052.22;6212248;23;20009;-87
2022/04/23 06:35:43;;;;;;;40.83;33.22;;;;;;;9.16;100.00;99048.53;6213033;23;20008;-87
2022/04/23 06:38:09;;;;;;;38.42;31.63;;;;;;;9.27;100.00;99056.44;6211297;23;20090;-86
2022/04/23 06:40:35;;;;;;;37.67;32.60;;;;;;;9.30;100.00;99055.53;6213372;23;20330;-86
2022/04/23 06:43:01;;;;;;;39.78;32.05;;;;;;;9.39;100.00;99058.34;6211465;23;20445;-87
2022/04/23 06:45:32;;;;;;;38.63;31.23;;;;;;;9.44;100.00;99065.28;6211942;23;20023;-83
2022/04/23 06:48:04;;;;;;;37.22;31.42;;;;;;;9.45;100.00;99066.84;6211548;23;20013;-85
2022/04/23 06:50:31;;;;;;;33.55;29.20;;;;;;;9.50;100.00;99069.03;6210508;23;20027;-85
2022/04/23 06:52:59;;;;;;;34.75;30.15;;;;;;;9.56;100.00;99064.44;6210051;23;20005;-85
2022/04/23 06:55:24;;;;;;;34.65;29.85;;;;;;;9.58;100.00;99067.53;6211687;23;20016;-85
2022/04/23 06:57:50;;;;;;;35.80;29.77;;;;;;;9.61;100.00;99077.69;6210123;23;20525;-85
2022/04/23 07:00:16;;;;;;;35.35;29.70;;;;;;;9.61;100.00;99066.63;6209713;23;20075;-85
2022/04/23 07:02:41;;;;;;;33.00;29.17;;;;;;;9.61;100.00;99075.72;6209179;23;20024;-87
2022/04/23 07:05:07;;;;;;;35.00;29.02;;;;;;;9.63;100.00;99083.53;6209084;23;20036;-85
2022/04/23 07:07:36;;;;;;;35.25;29.42;;;;;;;9.62;100.00;99059.88;6208570;23;20028;-85
2022/04/23 07:10:01;;;;;;;32.85;28.80;;;;;;;9.71;100.00;99070.97;6209225;23;20334;-85
2022/04/23 07:12:27;;;;;;;35.17;28.52;;;;;;;9.66;100.00;99060.50;6184036;23;20100;-85
2022/04/23 07:14:52;;;;;;;32.95;28.45;;;;;;;9.76;100.00;99084.22;6212115;23;20009;-86
2022/04/23 07:17:25;;;;;;;37.80;30.45;;;;;;;9.81;100.00;99067.03;6209853;23;20084;-86
2022/04/23 07:19:53;;;;;;;33.63;28.80;;;;;;;10.01;100.00;99078.50;6210203;23;20017;-85
2022/04/23 07:22:19;;;;;;;29.88;26.58;;;;;;;10.09;100.00;99071.44;6209505;23;20405;-86
2022/04/23 07:24:45;;;;;;;29.17;25.88;;;;;;;10.14;100.00;99068.09;6210490;23;20075;-86
2022/04/23 07:27:11;;;;;;;31.25;27.17;;;;;;;10.18;100.00;99063.19;6209788;23;20001;-89
2022/04/23 07:29:37;;;;;;;31.00;27.13;;;;;;;10.21;100.00;99061.50;6211788;23;20009;-87
2022/04/23 07:32:04;;;;;;;31.60;27.77;;;;;;;10.22;100.00;99058.28;6209551;23;20039;-86
2022/04/23 07:37:28;;;;;;;29.23;26.13;;;;;;;10.28;100.00;99078.59;6211384;23;20009;-87
2022/04/23 07:40:05;;;;;;;28.88;25.08;;;;;;;10.38;100.00;99075.88;6211378;23;20457;-87
2022/04/23 07:42:31;;;;;;;28.90;25.80;;;;;;;10.56;100.00;99082.22;6210186;23;20032;-87
2022/04/23 07:44:57;;;;;;;29.50;26.40;;;;;;;10.61;100.00;99087.16;6210066;23;20076;-87
2022/04/23 07:47:23;;;;;;;27.40;24.42;;;;;;;10.64;100.00;99089.00;6209702;23;20012;-88
2022/04/23 07:49:49;;;;;;;29.60;26.40;;;;;;;10.88;100.00;99080.84;6212069;23;20017;-87
2022/04/23 07:52:14;;;;;;;28.70;25.70;;;;;;;10.98;100.00;99081.63;6210744;23;20043;-87
2022/04/23 07:54:40;;;;;;;28.58;24.40;;;;;;;11.17;100.00;99081.16;6211116;23;20465;-88
2022/04/23 07:57:07;;;;;;;27.45;24.63;;;;;;;11.30;100.00;99099.66;6212913;23;20634;-88
2022/04/23 07:59:33;;;;;;;26.42;23.55;;;;;;;11.36;100.00;99095.81;6211953;23;20017;-87
2022/04/23 08:02:01;;;;;;;28.00;25.10;;;;;;;11.45;100.00;99095.00;6212070;23;20096;-87
2022/04/23 08:04:29;;;;;;;30.83;26.95;;;;;;;11.70;100.00;99083.53;6211500;23;20090;-86
2022/04/23 08:06:54;;;;;;;24.77;22.25;;;;;;;11.95;100.00;99085.94;6213344;23;20016;-87
2022/04/23 08:09:20;;;;;;;24.25;21.65;;;;;;;12.00;100.00;99085.31;6210754;23;20070;-89
2022/04/23 08:11:45;;;;;;;25.55;22.95;;;;;;;12.17;100.00;99077.38;6213120;23;20017;-89
2022/04/23 08:14:13;;;;;;;25.92;23.23;;;;;;;12.28;100.00;99083.16;6212892;23;20009;-89
2022/04/23 08:16:38;;;;;;;25.95;23.25;;;;;;;12.43;100.00;99072.09;6212808;23;20099;-89
2022/04/23 08:19:04;;;;;;;25.80;23.02;;;;;;;12.59;100.00;99086.38;6186308;23;20121;-86
2022/04/23 08:21:29;;;;;;;25.67;22.48;;;;;;;12.38;99.57;99086.66;6212603;23;20012;-85
2022/04/23 08:23:55;;;;;;;24.27;21.75;;;;;;;12.40;100.00;99089.75;6212558;23;20000;-87
2022/04/23 08:26:21;;;;;;;23.92;21.40;;;;;;;12.39;96.04;99085.41;6185903;23;20359;-86
2022/04/23 08:31:31;;;;;;;24.48;20.73;;;;;;;12.49;97.47;99087.69;6212538;23;20060;-87
2022/04/23 08:33:59;;;;;;;22.92;20.63;;;;;;;12.61;96.61;99088.69;6212750;23;20001;-87
2022/04/23 08:36:26;;;;;;;23.80;21.30;;;;;;;12.65;96.82;99089.28;6212266;23;20048;-86
2022/04/23 08:38:55;;;;;;;22.80;20.40;;;;;;;12.77;97.62;99084.72;6213043;23;20346;-88
2022/04/23 08:41:27;;;;;;;23.65;21.15;;;;;;;12.99;96.05;99080.38;6212974;23;20088;-87
2022/04/23 08:43:53;;;;;;;22.73;20.30;;;;;;;13.33;94.28;99087.38;6211011;23;20012;-87
2022/04/23 08:46:18;;;;;;;22.05;19.67;;;;;;;13.54;92.01;99094.59;6211329;23;20015;-87
2022/04/23 08:48:50;;;;;;;24.77;22.27;;;;;;;13.55;93.37;99087.75;6211786;23;20439;-88
2022/04/23 08:51:20;;;;;;;23.23;20.58;;;;;;;13.43;92.18;99101.97;6187213;23;20008;-87
2022/04/23 08:53:46;;;;;;;22.42;20.13;;;;;;;12.81;92.41;99090.88;6212230;23;20023;-87
2022/04/23 08:56:12;;;;;;;22.85;20.08;;;;;;;13.09;92.34;99098.53;6211839;23;20016;-87
2022/04/23 08:58:40;;;;;;;23.30;20.90;;;;;;;13.43;91.71;99107.53;6213403;23;20008;-88
2022/04/23 09:01:06;;;;;;;24.35;19.80;;;;;;;13.68;90.97;99106.97;6213151;23;20019;-87
2022/04/23 09:03:32;;;;;;;20.98;18.88;;;;;;;13.71;89.08;99100.44;6214045;23;20343;-91
2022/04/23 09:05:57;;;;;;;20.58;18.50;;;;;;;13.79;90.06;99100.84;6212798;23;20083;-91
2022/04/23 09:08:25;;;;;;;20.38;18.38;;;;;;;13.94;91.05;99104.38;6186575;23;20017;-87
2022/04/23 09:10:54;;;;;;;20.92;18.83;;;;;;;14.03;87.28;99105.03;6213425;23;20107;-88
2022/04/23 09:13:38;;;;;;;23.38;19.30;;;;;;;13.98;89.04;99100.16;6211646;23;20033;-88
2022/04/23 09:24:45;;;;;;;21.63;19.42;;;;;;;13.67;90.53;99110.28;6213371;23;20019;-88
2022/04/23 09:27:11;;;;;;;21.48;19.40;;;;;;;13.69;90.70;99110.53;6213582;23;20083;-89
2022/04/23 09:29:36;;;;;;;21.15;19.13;;;;;;;13.81;91.05;99107.47;6208386;23;20383;-89
2022/04/23 09:32:14;;;;;;;19.92;17.92;;;;;;;13.95;90.31;99106.69;6211502;23;20043;-90
2022/04/23 09:34:40;;;;;;;20.90;18.65;;;;;;;13.86;87.12;99101.22;6209261;23;20026;-89
2022/04/23 09:37:08;;;;;;;20.52;18.33;;;;;;;13.90;87.75;99110.16;6209602;23;20019;-85
2022/04/23 09:39:36;;;;;;;20.85;18.77;;;;;;;13.94;89.50;99102.38;6209538;23;20009;-87
2022/04/23 09:42:15;;;;;;;20.33;18.30;;;;;;;13.92;89.89;99090.91;6210240;23;20043;-89
2022/04/23 09:44:41;;;;;;;20.35;18.10;;;;;;;13.92;89.82;99113.22;6211269;23;20047;-88
2022/04/23 09:47:07;;;;;;;19.35;17.45;;;;;;;13.85;88.52;99119.19;6210879;23;20428;-88
2022/04/23 09:49:32;;;;;;;20.02;18.13;;;;;;;13.55;88.77;99115.63;6211738;23;20112;-87
2022/04/23 09:52:06;;;;;;;20.13;18.10;;;;;;;13.38;90.27;99127.72;6184342;23;20067;-87
2022/04/23 09:54:32;;;;;;;19.00;17.00;;;;;;;13.11;90.61;99114.78;6210114;23;20431;-89
2022/04/23 09:56:59;;;;;;;19.63;17.52;;;;;;;13.08;92.32;99119.28;6210436;23;20039;-89
2022/04/23 09:59:25;;;;;;;20.42;18.08;;;;;;;13.12;91.57;99121.13;6210956;23;20019;-90
2022/04/23 10:01:51;;;;;;;20.15;17.33;;;;;;;13.22;92.78;99125.38;6208260;23;20013;-88
2022/04/23 10:04:27;;;;;;;18.08;16.15;;;;;;;13.29;90.64;99136.16;6209739;23;20435;-89
2022/04/23 10:06:54;;;;;;;16.98;15.18;;;;;;;13.33;89.14;99120.03;6184765;23;20031;-88
2022/04/23 10:09:24;;;;;;;17.13;15.02;;;;;;;13.51;88.94;99128.19;6209623;23;20044;-89
2022/04/23 10:11:59;;;;;;;16.58;14.88;;;;;;;13.65;87.21;99109.97;6185371;23;20099;-88
2022/04/23 10:14:26;;;;;;;16.58;14.90;;;;;;;13.81;87.77;99101.91;6210245;23;20087;-89
2022/04/23 10:16:53;;;;;;;15.55;13.95;;;;;;;14.01;84.20;99101.97;6210282;23;20005;-93
2022/04/23 10:19:20;;;;;;;15.93;14.27;;;;;;;14.18;84.03;99107.03;6210622;23;20469;-92
2022/04/23 10:21:58;;;;;;;14.48;12.98;;;;;;;14.45;83.82;99115.06;6186451;23;20013;-92
2022/04/23 10:24:47;;;;;;;15.23;13.55;;;;;;;14.55;82.43;99096.97;6184957;23;20103;-90
2022/04/23 10:27:14;;;;;;;14.70;13.30;;;;;;;14.63;82.98;99103.69;6209652;23;20381;-93
2022/04/23 10:29:39;;;;;;;15.90;14.02;;;;;;;14.49;83.94;99090.53;6183703;23;20012;-93
2022/04/23 10:32:11;;;;;;;15.10;13.63;;;;;;;14.71;82.92;99113.16;6184672;23;20446;-89
2022/04/23 10:34:38;;;;;;;16.73;14.90;;;;;;;14.48;83.09;99112.06;6210785;23;20012;-89
2022/04/23 10:37:17;;;;;;;16.75;15.07;;;;;;;14.43;83.68;99103.66;6209327;23;20084;-89
2022/04/23 10:40:02;;;;;;;15.88;14.35;;;;;;;14.46;82.41;99103.44;6208986;23;20020;-89
2022/04/23 10:42:31;;;;;;;17.33;15.57;;;;;;;14.43;84.30;99114.81;6208183;23;20046;-86
2022/04/23 10:45:01;;;;;;;17.40;15.27;;;;;;;14.50;83.61;99116.41;6208594;23;20439;-87
2022/04/23 10:47:28;;;;;;;16.90;15.10;;;;;;;14.53;81.49;99113.41;6210083;23;20005;-94
2022/04/23 10:50:16;;;;;;;19.25;17.10;;;;;;;14.73;83.48;99116.22;6211026;23;20107;-89
2022/04/23 10:52:45;;;;;;;17.25;15.50;;;;;;;14.87;82.83;99109.81;6213681;23;20017;-90
2022/04/23 10:55:12;;;;;;;16.38;14.77;;;;;;;14.98;82.32;99119.59;6211452;23;20374;-89
2022/04/23 10:57:39;;;;;;;16.77;14.98;;;;;;;15.13;82.86;99111.88;6211929;23;20067;-89
2022/04/23 11:00:12;;;;;;;16.98;15.27;;;;;;;15.04;80.16;99110.03;6210470;23;20020;-89
2022/04/23 11:02:39;;;;;;;17.48;15.75;;;;;;;15.00;80.20;99119.88;6211411;23;20078;-89
2022/04/23 11:13:57;;;;;;;15.40;13.80;;;;;;;14.63;82.72;99131.59;6211773;23;20443;-91
2022/04/23 11:16:25;;;;;;;16.30;14.70;;;;;;;14.59;81.52;99133.81;6186264;23;20017;-94
2022/04/23 11:18:55;;;;;;;18.10;16.25;;;;;;;14.46;81.61;99141.72;6211486;23;20064;-94
2022/04/23 11:21:23;;;;;;;18.52;16.30;;;;;;;14.41;82.47;99134.81;6211603;23;20339;-90
2022/04/23 11:23:49;;;;;;;18.17;16.38;;;;;;;14.31;82.72;99129.81;6212983;23;20011;-90
2022/04/23 11:26:17;;;;;;;21.05;17.50;;;;;;;14.31;82.92;99135.41;6210966;23;20013;-89
2022/04/23 11:28:43;;;;;;;17.95;16.15;;;;;;;14.25;83.67;99140.09;6210732;23;20363;-91
2022/04/23 11:31:14;;;;;;;18.05;16.17;;;;;;;14.22;82.65;99132.72;6183756;23;20011;-91
2022/04/23 11:33:53;;;;;;;17.75;15.95;;;;;;;14.19;82.43;99133.69;6211063;23;20040;-86
2022/04/23 11:36:24;;;;;;;19.92;17.17;;;;;;;14.17;82.92;99141.75;6156975;23;20040;-88
2022/04/23 11:38:49;;;;;;;19.85;17.33;;;;;;;14.20;84.13;99133.19;6206510;23;20079;-87
2022/04/23 11:41:33;;;;;;;20.38;18.27;;;;;;;14.18;83.47;99130.13;6205840;23;20461;-87
2022/04/23 11:44:20;;;;;;;18.50;16.58;;;;;;;14.06;84.71;99136.78;6181463;23;20024;-87
2022/04/23 11:46:50;;;;;;;18.15;16.13;;;;;;;14.41;84.71;99134.03;6181449;23;20058;-88